Time;durP1;ratioP1;P1;durP2;ratioP2;P2;SDS_P1;SDS_P2;PMS_P1;PMS_P2;Temp;Humidity;BMP_temperature;BMP_pressure;BME280_temperature;BME280_humidity;BME280_pressure;Samples;Min_cycle;Max_cycle;Signal;HPM_P1;HPM_P2
2023/06/30 00:00:50;;;;;;;11.43;6.75;;;;;;;;;;4974338;28;20034;-65
2023/06/30 00:03:16;;;;;;;12.52;8.07;;;;;;;;;;4967261;28;20481;-65
2023/06/30 00:05:42;;;;;;;14.63;8.98;;;;;;;;;;4962510;28;20038;-65
2023/06/30 00:08:08;;;;;;;13.18;6.63;;;;;;;;;;4982522;28;20033;-65
2023/06/30 00:10:35;;;;;;;10.93;6.10;;;;;;;;;;4961297;28;20302;-65
2023/06/30 00:13:01;;;;;;;12.05;5.45;;;;;;;;;;4956603;28;20477;-66
2023/06/30 00:15:27;;;;;;;11.85;4.95;;;;;;;;;;4963667;28;20364;-65
2023/06/30 00:17:53;;;;;;;11.02;5.65;;;;;;;;;;4974923;28;20764;-65
2023/06/30 00:20:21;;;;;;;9.68;4.70;;;;;;;;;;4977679;28;21088;-65
2023/06/30 00:22:47;;;;;;;10.80;4.68;;;;;;;;;;4978291;28;20346;-65
2023/06/30 00:25:13;;;;;;;10.15;5.25;;;;;;;;;;4979255;28;20589;-65
2023/06/30 00:27:39;;;;;;;11.23;5.00;;;;;;;;;;4966614;28;20161;-64
2023/06/30 00:30:06;;;;;;;10.30;5.00;;;;;;;;;;4978387;28;20500;-64
2023/06/30 00:32:32;;;;;;;10.32;4.63;;;;;;;;;;4980563;28;20064;-64
2023/06/30 00:34:59;;;;;;;9.52;4.57;;;;;;;;;;4978764;28;20468;-64
2023/06/30 00:37:25;;;;;;;9.90;5.43;;;;;;;;;;4962936;28;20046;-64
2023/06/30 00:39:52;;;;;;;10.02;4.65;;;;;;;;;;4975810;28;20140;-64
2023/06/30 00:42:18;;;;;;;10.48;4.78;;;;;;;;;;4981651;28;20021;-63
2023/06/30 00:44:44;;;;;;;11.18;5.07;;;;;;;;;;4978149;28;20159;-63
2023/06/30 00:47:11;;;;;;;9.88;4.65;;;;;;;;;;4979755;28;20842;-64
2023/06/30 00:49:37;;;;;;;12.50;5.32;;;;;;;;;;4978987;28;20026;-64
2023/06/30 00:52:04;;;;;;;9.05;4.63;;;;;;;;;;4979792;28;20030;-64
2023/06/30 00:54:30;;;;;;;9.35;4.68;;;;;;;;;;4959149;28;20038;-64
2023/06/30 00:56:58;;;;;;;10.10;4.72;;;;;;;;;;4973397;28;20324;-64
2023/06/30 00:59:24;;;;;;;10.77;4.80;;;;;;;;;;4963221;28;20077;-64
2023/06/30 01:01:54;;;;;;;8.98;4.57;;;;;;;;;;4958901;28;20488;-65
2023/06/30 01:04:38;;;;;;;11.93;5.55;;;;;;;;;;4980086;28;20140;-64
2023/06/30 01:07:13;;;;;;;10.25;4.88;;;;;;;;;;4979229;28;21297;-63
2023/06/30 01:09:45;;;;;;;9.50;4.63;;;;;;;;;;4964318;28;20018;-64
2023/06/30 01:12:11;;;;;;;11.95;4.65;;;;;;;;;;4980248;28;20084;-65
2023/06/30 01:14:38;;;;;;;9.48;4.70;;;;;;;;;;4983741;28;20037;-65
2023/06/30 01:17:05;;;;;;;11.20;5.13;;;;;;;;;;4980592;28;21777;-66
2023/06/30 01:19:35;;;;;;;11.93;5.22;;;;;;;;;;4962075;28;20448;-66
2023/06/30 01:22:20;;;;;;;10.95;5.00;;;;;;;;;;4976094;28;20470;-63
2023/06/30 01:24:48;;;;;;;11.40;4.57;;;;;;;;;;4971971;28;20023;-64
2023/06/30 01:27:15;;;;;;;10.45;5.10;;;;;;;;;;4961598;28;20396;-65
2023/06/30 01:29:42;;;;;;;11.65;4.88;;;;;;;;;;4979634;28;20022;-63
2023/06/30 01:32:09;;;;;;;10.70;5.85;;;;;;;;;;4958226;28;20033;-63
2023/06/30 01:34:35;;;;;;;11.63;5.38;;;;;;;;;;4979805;28;20022;-64
2023/06/30 01:37:01;;;;;;;14.73;5.88;;;;;;;;;;4980887;28;20045;-63
2023/06/30 01:39:27;;;;;;;26.80;8.60;;;;;;;;;;4957405;28;20034;-63
2023/06/30 01:41:54;;;;;;;24.48;8.30;;;;;;;;;;4962225;28;20030;-63
2023/06/30 01:44:20;;;;;;;16.52;7.15;;;;;;;;;;4964957;28;20567;-62
2023/06/30 01:46:47;;;;;;;14.32;6.70;;;;;;;;;;4977333;28;20096;-64
2023/06/30 01:49:13;;;;;;;16.50;7.20;;;;;;;;;;4963049;28;20583;-63
2023/06/30 01:51:39;;;;;;;14.32;6.70;;;;;;;;;;4983311;28;20029;-63
2023/06/30 01:54:06;;;;;;;14.73;6.70;;;;;;;;;;4961608;28;20022;-63
2023/06/30 01:56:32;;;;;;;13.35;6.18;;;;;;;;;;4978255;28;20765;-63
2023/06/30 01:58:58;;;;;;;13.57;6.60;;;;;;;;;;4982914;28;20037;-63
2023/06/30 02:01:24;;;;;;;14.50;6.47;;;;;;;;;;4983017;28;20038;-64
2023/06/30 02:03:51;;;;;;;10.85;5.90;;;;;;;;;;4974304;28;20748;-62
2023/06/30 02:06:17;;;;;;;15.55;7.10;;;;;;;;;;4979568;28;20042;-63
2023/06/30 02:08:44;;;;;;;13.23;6.45;;;;;;;;;;4979076;28;20508;-63
2023/06/30 02:11:10;;;;;;;15.07;5.78;;;;;;;;;;4956548;28;20449;-63
2023/06/30 02:13:37;;;;;;;13.50;6.90;;;;;;;;;;4975270;28;20033;-63
2023/06/30 02:16:03;;;;;;;15.88;7.75;;;;;;;;;;4974679;28;20034;-64
2023/06/30 02:18:30;;;;;;;15.18;7.00;;;;;;;;;;4976807;28;21216;-64
2023/06/30 02:20:56;;;;;;;14.13;6.68;;;;;;;;;;4972554;28;20029;-63
2023/06/30 02:23:23;;;;;;;16.52;6.95;;;;;;;;;;4980754;28;20045;-63
2023/06/30 02:25:49;;;;;;;20.10;8.07;;;;;;;;;;4975854;28;20040;-63
2023/06/30 02:28:15;;;;;;;21.67;8.45;;;;;;;;;;4969967;28;20418;-62
2023/06/30 02:30:41;;;;;;;21.92;8.07;;;;;;;;;;4977364;28;20034;-63
2023/06/30 02:33:07;;;;;;;16.58;7.63;;;;;;;;;;4977622;28;20029;-63
2023/06/30 02:35:34;;;;;;;15.02;7.65;;;;;;;;;;4963024;28;20341;-62
2023/06/30 02:38:00;;;;;;;15.80;7.07;;;;;;;;;;4976349;28;20414;-62
2023/06/30 02:40:26;;;;;;;13.38;6.93;;;;;;;;;;4982549;28;20044;-62
2023/06/30 02:42:52;;;;;;;14.80;7.38;;;;;;;;;;4985154;28;20113;-62
2023/06/30 02:45:18;;;;;;;13.73;7.07;;;;;;;;;;4986722;28;20073;-63
2023/06/30 02:47:45;;;;;;;13.93;6.97;;;;;;;;;;4987593;28;20487;-63
2023/06/30 02:50:11;;;;;;;14.32;6.80;;;;;;;;;;4965286;28;20039;-63
2023/06/30 02:52:38;;;;;;;12.45;6.50;;;;;;;;;;4982198;28;20081;-63
2023/06/30 02:55:04;;;;;;;14.10;6.43;;;;;;;;;;4966144;28;20044;-63
2023/06/30 02:57:30;;;;;;;13.13;7.03;;;;;;;;;;4951527;28;20096;-63
2023/06/30 02:59:57;;;;;;;14.88;6.95;;;;;;;;;;4962820;28;20069;-62
2023/06/30 03:02:23;;;;;;;13.80;7.32;;;;;;;;;;4983301;28;20026;-62
2023/06/30 03:04:49;;;;;;;11.88;6.25;;;;;;;;;;4977127;28;20357;-62
2023/06/30 03:07:16;;;;;;;13.40;6.88;;;;;;;;;;4966551;28;20026;-63
2023/06/30 03:09:42;;;;;;;14.85;6.63;;;;;;;;;;4965410;28;20060;-62
2023/06/30 03:12:09;;;;;;;12.77;6.10;;;;;;;;;;4957943;28;20034;-65
2023/06/30 03:14:35;;;;;;;13.82;7.13;;;;;;;;;;4981383;28;20030;-63
2023/06/30 03:17:01;;;;;;;15.73;6.78;;;;;;;;;;4962479;28;20065;-66
2023/06/30 03:19:27;;;;;;;11.23;6.25;;;;;;;;;;4963689;28;20117;-63
2023/06/30 03:21:54;;;;;;;13.63;5.93;;;;;;;;;;4961972;28;20026;-63
2023/06/30 03:24:20;;;;;;;13.07;5.68;;;;;;;;;;4980132;28;20460;-63
2023/06/30 03:26:46;;;;;;;12.35;5.40;;;;;;;;;;4960038;28;20117;-63
2023/06/30 03:29:12;;;;;;;12.38;6.00;;;;;;;;;;4964625;28;20548;-64
2023/06/30 03:31:38;;;;;;;11.02;5.82;;;;;;;;;;4968798;28;20673;-61
2023/06/30 03:34:05;;;;;;;11.52;5.85;;;;;;;;;;4960479;28;20041;-64
2023/06/30 03:36:31;;;;;;;14.13;6.40;;;;;;;;;;4964481;28;20567;-63
2023/06/30 03:38:57;;;;;;;10.05;5.30;;;;;;;;;;4960103;28;20037;-64
2023/06/30 03:41:23;;;;;;;11.98;6.10;;;;;;;;;;4961096;28;20148;-65
2023/06/30 03:43:49;;;;;;;10.75;5.65;;;;;;;;;;4959696;28;20033;-63
2023/06/30 03:46:15;;;;;;;11.60;5.70;;;;;;;;;;4977567;28;20039;-63
2023/06/30 03:48:42;;;;;;;11.38;5.38;;;;;;;;;;4964137;28;20037;-65
2023/06/30 03:51:08;;;;;;;11.57;5.70;;;;;;;;;;4963867;28;20034;-63
2023/06/30 03:53:34;;;;;;;11.52;5.90;;;;;;;;;;4965867;28;20026;-64
2023/06/30 03:56:00;;;;;;;9.90;4.75;;;;;;;;;;4981482;28;20049;-64
2023/06/30 03:58:28;;;;;;;11.35;5.75;;;;;;;;;;4982983;28;20319;-64
2023/06/30 04:00:55;;;;;;;10.65;5.05;;;;;;;;;;4978166;28;20040;-64
2023/06/30 04:03:21;;;;;;;11.05;5.30;;;;;;;;;;4979150;28;20643;-65
2023/06/30 04:05:47;;;;;;;12.10;5.05;;;;;;;;;;4976550;28;20025;-64
2023/06/30 04:08:13;;;;;;;9.27;4.57;;;;;;;;;;4982161;28;20029;-64
2023/06/30 04:10:39;;;;;;;10.57;4.93;;;;;;;;;;4962457;28;20069;-64
2023/06/30 04:13:06;;;;;;;10.07;4.95;;;;;;;;;;4962166;28;20034;-62
2023/06/30 04:15:32;;;;;;;10.82;5.18;;;;;;;;;;4980705;28;20034;-65
2023/06/30 04:17:59;;;;;;;10.48;5.13;;;;;;;;;;4969254;28;20116;-63
2023/06/30 04:20:25;;;;;;;9.77;4.55;;;;;;;;;;4963027;28;20109;-62
2023/06/30 04:22:51;;;;;;;10.57;5.07;;;;;;;;;;4955071;28;20118;-63
2023/06/30 04:25:18;;;;;;;11.50;5.15;;;;;;;;;;4960004;28;20042;-63
2023/06/30 04:27:44;;;;;;;12.05;5.45;;;;;;;;;;4958705;28;20034;-63
2023/06/30 04:30:10;;;;;;;12.32;5.28;;;;;;;;;;4958497;28;20030;-64
2023/06/30 04:32:37;;;;;;;10.68;5.20;;;;;;;;;;4961164;28;20271;-64
2023/06/30 04:35:03;;;;;;;13.95;5.60;;;;;;;;;;4954685;28;20058;-65
2023/06/30 04:37:29;;;;;;;10.70;5.95;;;;;;;;;;4958125;28;20041;-64
2023/06/30 04:39:56;;;;;;;10.10;5.18;;;;;;;;;;4960219;28;20045;-63
2023/06/30 04:42:22;;;;;;;11.70;5.50;;;;;;;;;;4962980;28;20053;-63
2023/06/30 04:44:48;;;;;;;14.55;5.70;;;;;;;;;;4965514;28;20833;-64
2023/06/30 04:47:17;;;;;;;10.88;5.97;;;;;;;;;;4958462;28;20035;-63
2023/06/30 04:49:44;;;;;;;10.00;4.97;;;;;;;;;;4956794;28;20031;-64
2023/06/30 04:52:10;;;;;;;10.55;5.57;;;;;;;;;;4962383;28;20033;-63
2023/06/30 04:54:36;;;;;;;11.02;5.18;;;;;;;;;;4962245;28;20184;-63
2023/06/30 04:57:02;;;;;;;10.43;5.50;;;;;;;;;;4957543;28;20396;-64
2023/06/30 04:59:29;;;;;;;9.68;5.20;;;;;;;;;;4954448;28;20140;-64
2023/06/30 05:01:55;;;;;;;11.00;5.18;;;;;;;;;;4955447;28;20141;-63
2023/06/30 05:04:21;;;;;;;9.85;4.85;;;;;;;;;;4959057;28;20026;-63
2023/06/30 05:06:47;;;;;;;12.60;5.05;;;;;;;;;;4952452;28;20027;-62
2023/06/30 05:09:13;;;;;;;9.43;4.90;;;;;;;;;;4952386;28;20038;-63
2023/06/30 05:11:39;;;;;;;10.05;5.05;;;;;;;;;;4961416;28;20141;-63
2023/06/30 05:14:05;;;;;;;12.55;5.68;;;;;;;;;;4956494;28;20594;-64
2023/06/30 05:16:32;;;;;;;10.48;4.82;;;;;;;;;;4956422;28;20073;-63
2023/06/30 05:18:58;;;;;;;10.63;5.00;;;;;;;;;;4972528;28;20511;-63
2023/06/30 05:21:24;;;;;;;10.38;5.50;;;;;;;;;;4952943;28;20065;-63
2023/06/30 05:23:50;;;;;;;9.80;4.82;;;;;;;;;;4974243;28;20033;-63
2023/06/30 05:26:16;;;;;;;10.27;5.50;;;;;;;;;;4962728;28;20573;-63
2023/06/30 05:28:42;;;;;;;12.57;5.32;;;;;;;;;;4980363;28;20418;-63
2023/06/30 05:31:08;;;;;;;13.23;5.30;;;;;;;;;;4953768;28;20030;-63
2023/06/30 05:33:35;;;;;;;11.85;5.10;;;;;;;;;;4964769;28;20499;-64
2023/06/30 05:36:01;;;;;;;9.70;5.05;;;;;;;;;;4971450;28;20038;-64
2023/06/30 05:38:27;;;;;;;9.65;4.72;;;;;;;;;;4964172;28;20124;-63
2023/06/30 05:40:53;;;;;;;11.98;5.70;;;;;;;;;;4973929;28;20235;-65
2023/06/30 05:43:20;;;;;;;13.38;5.90;;;;;;;;;;4961100;28;20064;-63
2023/06/30 05:45:46;;;;;;;11.13;5.45;;;;;;;;;;4975283;28;20091;-63
2023/06/30 05:48:12;;;;;;;11.88;5.95;;;;;;;;;;4973988;28;20105;-63
2023/06/30 05:50:38;;;;;;;11.85;5.40;;;;;;;;;;4965571;28;20511;-64
2023/06/30 05:53:05;;;;;;;9.88;5.03;;;;;;;;;;4976589;28;21483;-63
2023/06/30 05:55:31;;;;;;;11.80;5.68;;;;;;;;;;4978142;28;20372;-64
2023/06/30 05:57:57;;;;;;;11.30;5.72;;;;;;;;;;4974917;28;20136;-65
2023/06/30 06:00:24;;;;;;;12.18;5.47;;;;;;;;;;4977067;28;20219;-65
2023/06/30 06:02:51;;;;;;;13.07;6.20;;;;;;;;;;4976956;28;20026;-65
2023/06/30 06:05:17;;;;;;;13.90;6.18;;;;;;;;;;4981304;28;20435;-64
2023/06/30 06:07:44;;;;;;;10.95;5.55;;;;;;;;;;4960993;28;20018;-64
2023/06/30 06:10:10;;;;;;;11.27;5.60;;;;;;;;;;4984896;28;20126;-63
2023/06/30 06:12:39;;;;;;;13.00;6.10;;;;;;;;;;4988442;28;20037;-64
2023/06/30 06:15:05;;;;;;;10.85;5.95;;;;;;;;;;4968041;28;20033;-65
2023/06/30 06:17:32;;;;;;;12.38;6.68;;;;;;;;;;4986151;28;20688;-62
2023/06/30 06:19:58;;;;;;;10.55;5.38;;;;;;;;;;4964649;28;20038;-64
2023/06/30 06:22:24;;;;;;;13.70;6.30;;;;;;;;;;4965821;28;20046;-64
2023/06/30 06:24:50;;;;;;;12.35;6.35;;;;;;;;;;4983417;28;20041;-65
2023/06/30 06:27:16;;;;;;;12.48;6.13;;;;;;;;;;4983323;28;20088;-64
2023/06/30 06:29:42;;;;;;;13.30;5.78;;;;;;;;;;4962395;28;20260;-64
2023/06/30 06:32:09;;;;;;;11.48;6.00;;;;;;;;;;4982219;28;20033;-64
2023/06/30 06:34:35;;;;;;;11.73;5.82;;;;;;;;;;4969565;28;20117;-64
2023/06/30 06:37:01;;;;;;;13.43;6.25;;;;;;;;;;4979891;28;20484;-64
2023/06/30 06:39:27;;;;;;;13.98;6.03;;;;;;;;;;4969922;28;20715;-65
2023/06/30 06:41:54;;;;;;;12.77;6.15;;;;;;;;;;4986156;28;20480;-64
2023/06/30 06:44:20;;;;;;;12.45;6.60;;;;;;;;;;4988411;28;20081;-64
2023/06/30 06:46:46;;;;;;;11.00;5.95;;;;;;;;;;4980059;28;20041;-64
2023/06/30 06:49:12;;;;;;;12.40;6.13;;;;;;;;;;4966657;28;20049;-64
2023/06/30 06:51:39;;;;;;;10.90;5.95;;;;;;;;;;4986032;28;20437;-64
2023/06/30 06:54:05;;;;;;;14.05;5.85;;;;;;;;;;4980269;28;20037;-64
2023/06/30 06:56:31;;;;;;;11.35;5.97;;;;;;;;;;4969587;28;20648;-64
2023/06/30 06:58:57;;;;;;;13.85;6.10;;;;;;;;;;4977217;28;20333;-64
2023/06/30 07:01:23;;;;;;;12.13;5.97;;;;;;;;;;4968518;28;20579;-65
2023/06/30 07:03:50;;;;;;;12.07;6.20;;;;;;;;;;4982849;28;20033;-65
2023/06/30 07:06:16;;;;;;;11.68;6.13;;;;;;;;;;4981405;28;20056;-64
2023/06/30 07:08:42;;;;;;;13.13;5.63;;;;;;;;;;4965855;28;20120;-65
2023/06/30 07:11:10;;;;;;;11.75;6.10;;;;;;;;;;4983911;28;20218;-64
2023/06/30 07:13:38;;;;;;;14.35;6.15;;;;;;;;;;4966105;28;20027;-65
2023/06/30 07:16:04;;;;;;;12.65;6.10;;;;;;;;;;4984654;28;20484;-65
2023/06/30 07:18:32;;;;;;;14.30;6.03;;;;;;;;;;4987381;28;20061;-65
2023/06/30 07:20:58;;;;;;;12.25;6.00;;;;;;;;;;4983084;28;20053;-65
2023/06/30 07:23:25;;;;;;;13.30;6.80;;;;;;;;;;4968456;28;20472;-65
2023/06/30 07:25:51;;;;;;;12.85;6.40;;;;;;;;;;4985303;28;20025;-66
2023/06/30 07:28:18;;;;;;;14.90;6.65;;;;;;;;;;4965581;28;20107;-66
2023/06/30 07:30:44;;;;;;;11.80;6.28;;;;;;;;;;4985003;28;20108;-66
2023/06/30 07:33:10;;;;;;;11.32;4.90;;;;;;;;;;4985381;28;20266;-63
2023/06/30 07:35:37;;;;;;;12.85;5.85;;;;;;;;;;4982786;28;20115;-65
2023/06/30 07:38:03;;;;;;;13.18;6.47;;;;;;;;;;4977990;28;20829;-65
2023/06/30 07:40:29;;;;;;;14.90;6.53;;;;;;;;;;4966830;28;20034;-65
2023/06/30 07:42:55;;;;;;;12.70;6.82;;;;;;;;;;4980310;28;20042;-64
2023/06/30 07:45:21;;;;;;;15.98;6.47;;;;;;;;;;4989037;28;20535;-65
2023/06/30 07:47:47;;;;;;;13.45;6.65;;;;;;;;;;4982316;28;20041;-65
2023/06/30 07:50:15;;;;;;;11.57;6.20;;;;;;;;;;4966633;28;20022;-66
2023/06/30 07:52:48;;;;;;;12.90;5.40;;;;;;;;;;4983353;28;20107;-63
2023/06/30 07:55:18;;;;;;;12.57;5.75;;;;;;;;;;4966451;28;20030;-64
2023/06/30 07:57:46;;;;;;;11.23;5.72;;;;;;;;;;4982553;28;20432;-63
2023/06/30 08:00:15;;;;;;;11.88;5.60;;;;;;;;;;4965121;28;20037;-64
2023/06/30 08:02:45;;;;;;;11.20;6.13;;;;;;;;;;4966322;28;20038;-63
2023/06/30 08:05:12;;;;;;;12.00;5.65;;;;;;;;;;4969554;28;20084;-64
2023/06/30 08:07:38;;;;;;;11.02;6.03;;;;;;;;;;4983441;28;20072;-65
2023/06/30 08:10:05;;;;;;;12.43;6.00;;;;;;;;;;4978509;28;21572;-64
2023/06/30 08:12:31;;;;;;;12.25;5.65;;;;;;;;;;4969891;28;20682;-65
2023/06/30 08:14:57;;;;;;;12.90;6.03;;;;;;;;;;4962030;28;20033;-64
2023/06/30 08:17:23;;;;;;;12.05;5.95;;;;;;;;;;4967781;28;20491;-65
2023/06/30 08:19:51;;;;;;;12.73;5.60;;;;;;;;;;4974387;28;20038;-64
2023/06/30 08:22:18;;;;;;;11.13;5.95;;;;;;;;;;4983613;28;20034;-64
2023/06/30 08:24:44;;;;;;;10.18;5.30;;;;;;;;;;4983521;28;20329;-66
2023/06/30 08:27:10;;;;;;;11.85;4.93;;;;;;;;;;4967681;28;20044;-64
2023/06/30 08:29:37;;;;;;;12.50;5.93;;;;;;;;;;4963363;28;20800;-65
2023/06/30 08:32:04;;;;;;;12.60;6.25;;;;;;;;;;4963026;28;20062;-65
2023/06/30 08:34:30;;;;;;;13.00;6.15;;;;;;;;;;4964515;28;20034;-65
2023/06/30 08:36:56;;;;;;;14.57;5.70;;;;;;;;;;4963690;28;20040;-65
2023/06/30 08:39:23;;;;;;;12.20;6.38;;;;;;;;;;4968935;28;20184;-65
2023/06/30 08:41:53;;;;;;;11.77;5.85;;;;;;;;;;4963579;28;20030;-65
2023/06/30 08:44:22;;;;;;;15.07;5.63;;;;;;;;;;4981136;28;20031;-65
2023/06/30 08:46:49;;;;;;;13.63;6.20;;;;;;;;;;4963650;28;20041;-63
2023/06/30 08:49:15;;;;;;;11.77;6.07;;;;;;;;;;4981084;28;20546;-66
2023/06/30 08:51:41;;;;;;;15.40;6.35;;;;;;;;;;4982520;28;20030;-65
2023/06/30 08:54:09;;;;;;;13.02;6.40;;;;;;;;;;4944603;28;20033;-65
2023/06/30 08:56:42;;;;;;;9.95;5.63;;;;;;;;;;4981641;28;20069;-65
2023/06/30 08:59:08;;;;;;;11.15;5.82;;;;;;;;;;4966254;28;20025;-64
2023/06/30 09:01:36;;;;;;;11.57;5.75;;;;;;;;;;4964954;28;20034;-66
2023/06/30 09:04:03;;;;;;;11.07;5.55;;;;;;;;;;4981659;28;20031;-64
2023/06/30 09:06:30;;;;;;;10.15;5.57;;;;;;;;;;4983916;28;20042;-65
2023/06/30 09:08:59;;;;;;;10.85;5.57;;;;;;;;;;4958709;28;20034;-65
2023/06/30 09:11:28;;;;;;;10.55;6.15;;;;;;;;;;4984335;28;20111;-65
2023/06/30 09:14:01;;;;;;;10.05;5.68;;;;;;;;;;4960839;28;20032;-65
2023/06/30 09:16:29;;;;;;;10.48;5.32;;;;;;;;;;4964730;28;20121;-66
2023/06/30 09:18:55;;;;;;;10.60;5.88;;;;;;;;;;4957940;28;20144;-66
2023/06/30 09:21:21;;;;;;;12.75;6.07;;;;;;;;;;4964224;28;20407;-66
2023/06/30 09:23:47;;;;;;;12.57;6.05;;;;;;;;;;4976815;28;20124;-64
2023/06/30 09:26:14;;;;;;;12.63;5.80;;;;;;;;;;4965157;28;20034;-64
2023/06/30 09:28:44;;;;;;;11.57;6.35;;;;;;;;;;4962815;28;20116;-65
2023/06/30 09:31:11;;;;;;;13.98;6.00;;;;;;;;;;4965589;28;20034;-65
2023/06/30 09:33:39;;;;;;;11.30;6.25;;;;;;;;;;4986125;28;20104;-65
2023/06/30 09:36:05;;;;;;;11.23;5.97;;;;;;;;;;4960056;28;20754;-65
2023/06/30 09:38:31;;;;;;;11.27;6.00;;;;;;;;;;4979872;28;20022;-65
2023/06/30 09:40:57;;;;;;;11.35;5.72;;;;;;;;;;4979768;28;20061;-65
2023/06/30 09:43:25;;;;;;;10.60;4.97;;;;;;;;;;4964222;28;20321;-64
2023/06/30 09:45:59;;;;;;;12.77;6.50;;;;;;;;;;4961522;28;20432;-65
2023/06/30 09:48:39;;;;;;;10.02;6.00;;;;;;;;;;4982575;28;20459;-65
2023/06/30 09:51:09;;;;;;;11.45;6.28;;;;;;;;;;4977022;28;20956;-64
2023/06/30 09:53:39;;;;;;;14.90;6.75;;;;;;;;;;4981308;28;20034;-65
2023/06/30 09:56:07;;;;;;;14.68;6.30;;;;;;;;;;4963343;28;20041;-65
2023/06/30 09:58:35;;;;;;;16.02;7.32;;;;;;;;;;4982025;28;20113;-65
2023/06/30 10:01:02;;;;;;;13.93;6.68;;;;;;;;;;4963212;28;20145;-65
2023/06/30 10:03:28;;;;;;;16.25;7.00;;;;;;;;;;4982647;28;20111;-65
2023/06/30 10:05:54;;;;;;;15.05;7.00;;;;;;;;;;4961938;28;20041;-65
2023/06/30 10:08:24;;;;;;;13.50;6.40;;;;;;;;;;4963786;28;20467;-65
2023/06/30 10:10:54;;;;;;;15.60;6.75;;;;;;;;;;4962704;28;20479;-66
2023/06/30 10:13:20;;;;;;;12.95;7.00;;;;;;;;;;4980956;28;20017;-66
2023/06/30 10:15:47;;;;;;;13.35;6.75;;;;;;;;;;4978329;28;20504;-65
2023/06/30 10:18:15;;;;;;;15.38;7.00;;;;;;;;;;4960999;28;20400;-65
2023/06/30 10:20:41;;;;;;;12.07;6.57;;;;;;;;;;4958852;28;22785;-66
2023/06/30 10:23:09;;;;;;;14.80;7.10;;;;;;;;;;4981191;28;20057;-65
2023/06/30 10:25:37;;;;;;;13.63;6.90;;;;;;;;;;4982026;28;20495;-65
2023/06/30 10:28:06;;;;;;;14.63;7.40;;;;;;;;;;4978077;28;20026;-66
2023/06/30 10:30:32;;;;;;;17.92;7.90;;;;;;;;;;4986204;28;20025;-64
2023/06/30 10:32:58;;;;;;;13.50;7.30;;;;;;;;;;4964565;28;20038;-65
2023/06/30 10:35:25;;;;;;;14.65;7.15;;;;;;;;;;4964314;28;20068;-66
2023/06/30 10:37:52;;;;;;;14.02;6.78;;;;;;;;;;4962230;28;20034;-66
2023/06/30 10:40:27;;;;;;;15.13;6.63;;;;;;;;;;4979420;28;20038;-64
2023/06/30 10:42:54;;;;;;;12.32;6.35;;;;;;;;;;4961136;28;20472;-64
2023/06/30 10:45:21;;;;;;;14.00;6.72;;;;;;;;;;4961097;28;20929;-65
2023/06/30 10:47:51;;;;;;;14.32;6.15;;;;;;;;;;4976801;28;20053;-65
2023/06/30 10:50:17;;;;;;;12.23;5.70;;;;;;;;;;4980257;28;20021;-65
2023/06/30 10:52:54;;;;;;;14.02;5.63;;;;;;;;;;4965475;28;20484;-65
2023/06/30 10:55:21;;;;;;;13.45;5.55;;;;;;;;;;4963348;28;20038;-65
2023/06/30 10:57:51;;;;;;;10.52;5.20;;;;;;;;;;4962549;28;20037;-64
2023/06/30 11:00:19;;;;;;;14.25;6.00;;;;;;;;;;4982501;28;20084;-65
2023/06/30 11:02:56;;;;;;;13.02;5.32;;;;;;;;;;4963316;28;20038;-65
2023/06/30 11:05:22;;;;;;;13.02;5.95;;;;;;;;;;4967006;28;20034;-65
2023/06/30 11:07:49;;;;;;;13.85;5.90;;;;;;;;;;4981480;28;20477;-66
2023/06/30 11:10:28;;;;;;;14.23;6.05;;;;;;;;;;4964152;28;20156;-65
2023/06/30 11:12:55;;;;;;;13.27;6.13;;;;;;;;;;4981387;28;20056;-65
2023/06/30 11:15:26;;;;;;;13.00;5.80;;;;;;;;;;4961596;28;20026;-66
2023/06/30 11:17:52;;;;;;;12.27;6.13;;;;;;;;;;4980837;28;20623;-65
2023/06/30 11:20:19;;;;;;;14.23;7.15;;;;;;;;;;4965856;28;20115;-66
2023/06/30 11:23:00;;;;;;;13.88;7.10;;;;;;;;;;4981749;28;20141;-65
2023/06/30 11:25:27;;;;;;;16.02;6.80;;;;;;;;;;4965265;28;20050;-65
2023/06/30 11:27:54;;;;;;;13.68;6.55;;;;;;;;;;4974431;28;20117;-65
2023/06/30 11:30:21;;;;;;;14.07;6.70;;;;;;;;;;4978028;28;20636;-65
2023/06/30 11:32:48;;;;;;;13.88;6.47;;;;;;;;;;4976515;28;20088;-65
2023/06/30 11:35:17;;;;;;;15.73;6.85;;;;;;;;;;4982974;28;20331;-65
2023/06/30 11:37:50;;;;;;;15.30;6.55;;;;;;;;;;4983172;28;20583;-65
2023/06/30 11:40:16;;;;;;;14.68;6.88;;;;;;;;;;4982587;28;20026;-65
2023/06/30 11:42:43;;;;;;;15.35;6.32;;;;;;;;;;4978263;28;20486;-65
2023/06/30 11:45:09;;;;;;;13.60;6.40;;;;;;;;;;4958189;28;20041;-65
2023/06/30 11:47:36;;;;;;;15.85;6.88;;;;;;;;;;4979600;28;20026;-65
2023/06/30 11:50:07;;;;;;;15.13;6.75;;;;;;;;;;4963123;28;20049;-67
2023/06/30 11:52:34;;;;;;;19.55;7.18;;;;;;;;;;4976286;28;20083;-67
2023/06/30 11:55:04;;;;;;;14.68;6.72;;;;;;;;;;4980747;28;20023;-67
2023/06/30 11:57:37;;;;;;;14.57;6.38;;;;;;;;;;4981792;28;20428;-67
2023/06/30 12:00:11;;;;;;;13.57;6.40;;;;;;;;;;4977408;28;20034;-67
2023/06/30 12:02:37;;;;;;;13.63;6.03;;;;;;;;;;4976925;28;20049;-67
2023/06/30 12:05:11;;;;;;;12.00;6.43;;;;;;;;;;4979978;28;20036;-66
2023/06/30 12:07:37;;;;;;;12.48;6.07;;;;;;;;;;4962912;28;20384;-67
2023/06/30 12:10:05;;;;;;;14.52;6.45;;;;;;;;;;4963257;28;20146;-67
2023/06/30 12:12:32;;;;;;;10.18;5.18;;;;;;;;;;4966102;28;20746;-67
2023/06/30 12:14:59;;;;;;;12.52;6.07;;;;;;;;;;4981026;28;20452;-67
2023/06/30 12:17:26;;;;;;;12.73;6.22;;;;;;;;;;4988941;28;20503;-67
2023/06/30 12:19:53;;;;;;;13.32;6.53;;;;;;;;;;4984387;28;20033;-68
2023/06/30 12:22:27;;;;;;;13.23;6.15;;;;;;;;;;4972650;28;20492;-67
2023/06/30 12:25:00;;;;;;;15.27;6.50;;;;;;;;;;4975635;28;20302;-67
2023/06/30 12:27:29;;;;;;;13.70;6.30;;;;;;;;;;4969990;28;20260;-67
2023/06/30 12:29:56;;;;;;;16.08;7.22;;;;;;;;;;4965517;28;20084;-66
2023/06/30 12:32:26;;;;;;;16.42;7.18;;;;;;;;;;4989172;28;20081;-68
2023/06/30 12:34:57;;;;;;;16.73;6.93;;;;;;;;;;4981259;28;20224;-65
2023/06/30 12:37:29;;;;;;;18.35;7.40;;;;;;;;;;4983288;28;20781;-66
2023/06/30 12:39:56;;;;;;;16.50;7.65;;;;;;;;;;4962547;28;20038;-66
2023/06/30 12:42:29;;;;;;;15.27;7.47;;;;;;;;;;4965115;28;20038;-66
2023/06/30 12:44:55;;;;;;;13.68;6.72;;;;;;;;;;4973503;28;20030;-66
2023/06/30 12:47:22;;;;;;;13.88;7.15;;;;;;;;;;4985829;28;20516;-65
2023/06/30 12:49:49;;;;;;;16.60;6.85;;;;;;;;;;4973758;28;20034;-65
2023/06/30 12:52:21;;;;;;;15.50;6.97;;;;;;;;;;4984797;28;20461;-65
2023/06/30 12:54:47;;;;;;;14.48;6.95;;;;;;;;;;4978398;28;20037;-66
2023/06/30 12:57:13;;;;;;;14.95;7.22;;;;;;;;;;4961938;28;20049;-65
2023/06/30 12:59:40;;;;;;;15.38;6.82;;;;;;;;;;4962527;28;20029;-66
2023/06/30 13:02:06;;;;;;;13.25;7.65;;;;;;;;;;4977574;28;20045;-66
2023/06/30 13:04:32;;;;;;;18.55;8.05;;;;;;;;;;4981670;28;20677;-65
2023/06/30 13:06:59;;;;;;;14.45;7.50;;;;;;;;;;4979851;28;20116;-65
2023/06/30 13:09:26;;;;;;;13.65;6.15;;;;;;;;;;4977888;28;20294;-66
2023/06/30 13:11:53;;;;;;;14.55;6.40;;;;;;;;;;4960935;28;20133;-65
2023/06/30 13:14:19;;;;;;;13.25;6.22;;;;;;;;;;4980768;28;20787;-65
2023/06/30 13:16:46;;;;;;;13.00;5.88;;;;;;;;;;4980943;28;20297;-66
2023/06/30 13:19:12;;;;;;;14.40;6.80;;;;;;;;;;4982517;28;20137;-64
2023/06/30 13:21:39;;;;;;;13.25;7.13;;;;;;;;;;4967415;28;20781;-64
2023/06/30 13:24:05;;;;;;;14.38;7.43;;;;;;;;;;4980245;28;20199;-65
2023/06/30 13:26:32;;;;;;;18.65;8.85;;;;;;;;;;4978652;28;20049;-65
2023/06/30 13:28:59;;;;;;;18.08;9.25;;;;;;;;;;4978158;28;20030;-65
2023/06/30 13:31:25;;;;;;;24.58;9.43;;;;;;;;;;4980504;28;20040;-65
2023/06/30 13:33:51;;;;;;;18.80;8.93;;;;;;;;;;4975537;28;20068;-65
2023/06/30 13:36:17;;;;;;;20.20;9.55;;;;;;;;;;4962357;28;20137;-65
2023/06/30 13:38:44;;;;;;;20.30;9.15;;;;;;;;;;4960796;28;20745;-65
2023/06/30 13:41:11;;;;;;;18.02;10.18;;;;;;;;;;4981439;28;20105;-65
2023/06/30 13:43:37;;;;;;;15.95;9.52;;;;;;;;;;4980212;28;20354;-65
2023/06/30 13:46:03;;;;;;;17.52;9.32;;;;;;;;;;4979048;28;20052;-65
2023/06/30 13:48:29;;;;;;;18.10;8.95;;;;;;;;;;4982227;28;20484;-65
2023/06/30 13:50:56;;;;;;;19.95;9.43;;;;;;;;;;4959473;28;20038;-65
2023/06/30 13:53:22;;;;;;;20.75;9.40;;;;;;;;;;4980645;28;20068;-64
2023/06/30 13:55:48;;;;;;;18.23;8.98;;;;;;;;;;4977821;28;20034;-65
2023/06/30 13:58:14;;;;;;;19.38;8.93;;;;;;;;;;4961079;28;20030;-65
2023/06/30 14:00:41;;;;;;;22.38;9.80;;;;;;;;;;4965656;28;20042;-64
2023/06/30 14:03:07;;;;;;;20.30;9.82;;;;;;;;;;4971126;28;20048;-65
2023/06/30 14:05:33;;;;;;;18.98;8.63;;;;;;;;;;4979311;28;20508;-66
2023/06/30 14:07:59;;;;;;;18.55;9.73;;;;;;;;;;4978938;28;20767;-65
2023/06/30 14:10:27;;;;;;;19.42;9.32;;;;;;;;;;4982050;28;20532;-65
2023/06/30 14:12:53;;;;;;;19.45;9.63;;;;;;;;;;4965114;28;20035;-65
2023/06/30 14:15:19;;;;;;;21.15;10.65;;;;;;;;;;4968787;28;20281;-64
2023/06/30 14:17:46;;;;;;;20.45;10.45;;;;;;;;;;4973078;28;20689;-64
2023/06/30 14:20:12;;;;;;;20.02;9.43;;;;;;;;;;4975405;28;20117;-65
2023/06/30 14:22:38;;;;;;;22.95;11.10;;;;;;;;;;4990195;28;20093;-65
2023/06/30 14:25:05;;;;;;;19.50;10.75;;;;;;;;;;4977278;28;22296;-65
2023/06/30 14:27:31;;;;;;;21.85;10.20;;;;;;;;;;4978684;28;20034;-65
2023/06/30 14:29:57;;;;;;;17.25;10.18;;;;;;;;;;4975334;28;20120;-65